sensor_id;sensor_type;location;lat;lon;timestamp;temperature;humidity
71668;DHT22;59504;54.806;9.640;2024-02-23T00:01:23;10.60;84.10
71668;DHT22;59504;54.806;9.640;2024-02-23T00:03:41;10.60;82.50
71668;DHT22;59504;54.806;9.640;2024-02-23T00:06:01;10.50;81.70
71668;DHT22;59504;54.806;9.640;2024-02-23T00:08:22;10.40;81.60
71668;DHT22;59504;54.806;9.640;2024-02-23T00:10:42;10.40;80.40
71668;DHT22;59504;54.806;9.640;2024-02-23T00:13:03;10.30;79.70
71668;DHT22;59504;54.806;9.640;2024-02-23T00:15:23;10.30;77.80
71668;DHT22;59504;54.806;9.640;2024-02-23T00:17:45;10.30;76.80
71668;DHT22;59504;54.806;9.640;2024-02-23T00:20:08;10.00;73.20
71668;DHT22;59504;54.806;9.640;2024-02-23T00:22:32;10.00;74.90
71668;DHT22;59504;54.806;9.640;2024-02-23T00:24:53;9.90;74.40
71668;DHT22;59504;54.806;9.640;2024-02-23T00:27:13;9.90;73.90
71668;DHT22;59504;54.806;9.640;2024-02-23T00:29:34;9.80;73.00
71668;DHT22;59504;54.806;9.640;2024-02-23T00:31:55;9.70;71.20
71668;DHT22;59504;54.806;9.640;2024-02-23T00:34:16;9.70;71.70
71668;DHT22;59504;54.806;9.640;2024-02-23T00:36:38;9.50;68.80
71668;DHT22;59504;54.806;9.640;2024-02-23T00:38:51;9.40;69.80
71668;DHT22;59504;54.806;9.640;2024-02-23T00:41:11;9.30;69.50
71668;DHT22;59504;54.806;9.640;2024-02-23T00:43:39;9.20;69.40
71668;DHT22;59504;54.806;9.640;2024-02-23T00:45:59;9.10;68.70
71668;DHT22;59504;54.806;9.640;2024-02-23T00:48:20;9.00;68.60
71668;DHT22;59504;54.806;9.640;2024-02-23T00:50:41;8.90;69.60
71668;DHT22;59504;54.806;9.640;2024-02-23T00:53:01;8.80;70.20
71668;DHT22;59504;54.806;9.640;2024-02-23T00:55:22;8.60;70.20
71668;DHT22;59504;54.806;9.640;2024-02-23T00:57:42;8.50;70.30
71668;DHT22;59504;54.806;9.640;2024-02-23T01:00:03;8.50;71.20
71668;DHT22;59504;54.806;9.640;2024-02-23T01:02:25;8.40;71.60
71668;DHT22;59504;54.806;9.640;2024-02-23T01:04:46;8.30;71.20
71668;DHT22;59504;54.806;9.640;2024-02-23T01:07:06;8.20;71.50
71668;DHT22;59504;54.806;9.640;2024-02-23T01:09:27;8.20;72.00
71668;DHT22;59504;54.806;9.640;2024-02-23T01:11:47;8.00;72.30
71668;DHT22;59504;54.806;9.640;2024-02-23T01:14:08;7.90;72.20
71668;DHT22;59504;54.806;9.640;2024-02-23T01:16:08;7.90;73.10
71668;DHT22;59504;54.806;9.640;2024-02-23T01:18:09;7.80;73.20
71668;DHT22;59504;54.806;9.640;2024-02-23T01:20:10;7.70;73.40
71668;DHT22;59504;54.806;9.640;2024-02-23T01:22:10;7.60;73.40
71668;DHT22;59504;54.806;9.640;2024-02-23T01:24:11;7.50;74.00
71668;DHT22;59504;54.806;9.640;2024-02-23T01:26:11;7.50;74.40
71668;DHT22;59504;54.806;9.640;2024-02-23T01:28:12;7.40;74.90
71668;DHT22;59504;54.806;9.640;2024-02-23T01:30:13;7.40;75.20
71668;DHT22;59504;54.806;9.640;2024-02-23T01:32:14;7.20;75.30
71668;DHT22;59504;54.806;9.640;2024-02-23T01:34:29;7.10;75.70
71668;DHT22;59504;54.806;9.640;2024-02-23T01:36:50;7.00;76.10
71668;DHT22;59504;54.806;9.640;2024-02-23T01:39:10;6.90;76.20
71668;DHT22;59504;54.806;9.640;2024-02-23T01:41:31;6.80;76.70
71668;DHT22;59504;54.806;9.640;2024-02-23T01:43:52;6.80;77.10
71668;DHT22;59504;54.806;9.640;2024-02-23T01:46:13;6.60;77.60
71668;DHT22;59504;54.806;9.640;2024-02-23T01:48:37;6.60;77.90
71668;DHT22;59504;54.806;9.640;2024-02-23T01:50:57;6.50;78.30
71668;DHT22;59504;54.806;9.640;2024-02-23T01:53:18;6.40;78.60
71668;DHT22;59504;54.806;9.640;2024-02-23T01:55:40;6.30;78.70
71668;DHT22;59504;54.806;9.640;2024-02-23T01:58:01;6.30;79.00
71668;DHT22;59504;54.806;9.640;2024-02-23T02:00:21;6.20;79.40
71668;DHT22;59504;54.806;9.640;2024-02-23T02:02:44;6.20;79.50
71668;DHT22;59504;54.806;9.640;2024-02-23T02:04:45;6.20;80.00
71668;DHT22;59504;54.806;9.640;2024-02-23T02:06:46;6.10;80.00
71668;DHT22;59504;54.806;9.640;2024-02-23T02:08:47;6.10;80.10
71668;DHT22;59504;54.806;9.640;2024-02-23T02:10:48;6.20;80.30
71668;DHT22;59504;54.806;9.640;2024-02-23T02:13:09;6.10;81.20
71668;DHT22;59504;54.806;9.640;2024-02-23T02:15:30;6.00;80.60
71668;DHT22;59504;54.806;9.640;2024-02-23T02:17:51;6.10;80.80
71668;DHT22;59504;54.806;9.640;2024-02-23T02:20:12;6.00;80.60
71668;DHT22;59504;54.806;9.640;2024-02-23T02:22:16;6.00;80.90
71668;DHT22;59504;54.806;9.640;2024-02-23T02:24:37;6.00;81.00
71668;DHT22;59504;54.806;9.640;2024-02-23T02:26:59;5.90;81.10
71668;DHT22;59504;54.806;9.640;2024-02-23T02:29:20;5.90;81.20
71668;DHT22;59504;54.806;9.640;2024-02-23T02:31:40;5.90;81.30
71668;DHT22;59504;54.806;9.640;2024-02-23T02:34:00;5.90;81.40
71668;DHT22;59504;54.806;9.640;2024-02-23T02:36:21;5.90;81.30
71668;DHT22;59504;54.806;9.640;2024-02-23T02:38:42;5.80;81.30
71668;DHT22;59504;54.806;9.640;2024-02-23T02:40:42;5.80;81.20
71668;DHT22;59504;54.806;9.640;2024-02-23T02:42:43;5.80;81.40
71668;DHT22;59504;54.806;9.640;2024-02-23T02:44:43;5.70;81.50
71668;DHT22;59504;54.806;9.640;2024-02-23T02:46:44;5.70;81.40
71668;DHT22;59504;54.806;9.640;2024-02-23T02:48:46;5.80;81.70
71668;DHT22;59504;54.806;9.640;2024-02-23T02:50:46;5.70;81.60
71668;DHT22;59504;54.806;9.640;2024-02-23T02:52:47;5.70;81.70
71668;DHT22;59504;54.806;9.640;2024-02-23T02:54:48;5.60;81.80
71668;DHT22;59504;54.806;9.640;2024-02-23T02:57:09;5.60;82.00
71668;DHT22;59504;54.806;9.640;2024-02-23T02:59:33;5.50;81.90
71668;DHT22;59504;54.806;9.640;2024-02-23T03:01:36;5.50;82.00
71668;DHT22;59504;54.806;9.640;2024-02-23T03:03:43;5.50;81.70
71668;DHT22;59504;54.806;9.640;2024-02-23T03:06:04;5.50;81.00
71668;DHT22;59504;54.806;9.640;2024-02-23T03:08:25;5.50;80.90
71668;DHT22;59504;54.806;9.640;2024-02-23T03:10:46;5.50;80.90
71668;DHT22;59504;54.806;9.640;2024-02-23T03:13:09;5.50;80.90
71668;DHT22;59504;54.806;9.640;2024-02-23T03:15:29;5.40;80.80
71668;DHT22;59504;54.806;9.640;2024-02-23T03:17:50;5.40;80.70
71668;DHT22;59504;54.806;9.640;2024-02-23T03:20:10;5.50;81.00
71668;DHT22;59504;54.806;9.640;2024-02-23T03:22:31;5.50;80.80
71668;DHT22;59504;54.806;9.640;2024-02-23T03:24:52;5.50;81.00
71668;DHT22;59504;54.806;9.640;2024-02-23T03:27:12;5.60;81.10
71668;DHT22;59504;54.806;9.640;2024-02-23T03:29:33;5.50;81.10
71668;DHT22;59504;54.806;9.640;2024-02-23T03:31:53;5.50;81.20
71668;DHT22;59504;54.806;9.640;2024-02-23T03:33:54;5.50;81.20
71668;DHT22;59504;54.806;9.640;2024-02-23T03:35:55;5.50;81.50
71668;DHT22;59504;54.806;9.640;2024-02-23T03:37:56;5.50;81.50
71668;DHT22;59504;54.806;9.640;2024-02-23T03:39:56;5.50;81.50
71668;DHT22;59504;54.806;9.640;2024-02-23T03:41:57;5.60;81.70
71668;DHT22;59504;54.806;9.640;2024-02-23T03:44:17;5.60;81.90
71668;DHT22;59504;54.806;9.640;2024-02-23T03:46:38;5.60;82.00
71668;DHT22;59504;54.806;9.640;2024-02-23T03:48:58;5.70;82.30
71668;DHT22;59504;54.806;9.640;2024-02-23T03:51:19;5.70;82.50
71668;DHT22;59504;54.806;9.640;2024-02-23T03:53:39;5.70;82.40
71668;DHT22;59504;54.806;9.640;2024-02-23T03:56:00;5.70;82.10
71668;DHT22;59504;54.806;9.640;2024-02-23T03:58:20;5.70;81.60
71668;DHT22;59504;54.806;9.640;2024-02-23T04:00:42;5.70;80.90
71668;DHT22;59504;54.806;9.640;2024-02-23T04:03:02;5.70;80.90
71668;DHT22;59504;54.806;9.640;2024-02-23T04:05:23;5.70;81.00
71668;DHT22;59504;54.806;9.640;2024-02-23T04:07:43;5.70;80.80
71668;DHT22;59504;54.806;9.640;2024-02-23T04:10:04;5.70;80.70
71668;DHT22;59504;54.806;9.640;2024-02-23T04:12:24;5.60;80.70
71668;DHT22;59504;54.806;9.640;2024-02-23T04:14:45;5.60;80.80
71668;DHT22;59504;54.806;9.640;2024-02-23T04:17:05;5.60;80.90
71668;DHT22;59504;54.806;9.640;2024-02-23T04:19:26;5.60;80.70
71668;DHT22;59504;54.806;9.640;2024-02-23T04:21:46;5.60;81.00
71668;DHT22;59504;54.806;9.640;2024-02-23T04:24:07;5.60;81.10
71668;DHT22;59504;54.806;9.640;2024-02-23T04:26:28;5.60;81.30
71668;DHT22;59504;54.806;9.640;2024-02-23T04:28:49;5.60;81.30
71668;DHT22;59504;54.806;9.640;2024-02-23T04:31:10;5.60;81.30
71668;DHT22;59504;54.806;9.640;2024-02-23T04:33:30;5.60;81.50
71668;DHT22;59504;54.806;9.640;2024-02-23T04:35:50;5.60;81.40
71668;DHT22;59504;54.806;9.640;2024-02-23T04:38:11;5.60;81.50
71668;DHT22;59504;54.806;9.640;2024-02-23T04:40:31;5.60;81.60
71668;DHT22;59504;54.806;9.640;2024-02-23T04:42:52;5.50;81.60
71668;DHT22;59504;54.806;9.640;2024-02-23T04:45:12;5.50;81.40
71668;DHT22;59504;54.806;9.640;2024-02-23T04:47:13;5.60;81.50
71668;DHT22;59504;54.806;9.640;2024-02-23T04:49:14;5.50;81.30
71668;DHT22;59504;54.806;9.640;2024-02-23T04:51:14;5.50;81.10
71668;DHT22;59504;54.806;9.640;2024-02-23T04:53:15;5.50;81.10
71668;DHT22;59504;54.806;9.640;2024-02-23T04:55:15;5.50;81.10
71668;DHT22;59504;54.806;9.640;2024-02-23T04:57:16;5.50;81.00
71668;DHT22;59504;54.806;9.640;2024-02-23T04:59:17;5.50;81.00
71668;DHT22;59504;54.806;9.640;2024-02-23T05:01:37;5.50;80.70
71668;DHT22;59504;54.806;9.640;2024-02-23T05:03:38;5.50;80.70
71668;DHT22;59504;54.806;9.640;2024-02-23T05:05:58;5.50;80.70
71668;DHT22;59504;54.806;9.640;2024-02-23T05:08:00;5.50;80.80
71668;DHT22;59504;54.806;9.640;2024-02-23T05:10:21;5.50;80.60
71668;DHT22;59504;54.806;9.640;2024-02-23T05:12:43;5.50;80.70
71668;DHT22;59504;54.806;9.640;2024-02-23T05:15:03;5.60;80.90
71668;DHT22;59504;54.806;9.640;2024-02-23T05:17:24;5.50;80.70
71668;DHT22;59504;54.806;9.640;2024-02-23T05:19:44;5.50;80.70
71668;DHT22;59504;54.806;9.640;2024-02-23T05:22:06;5.50;80.70
71668;DHT22;59504;54.806;9.640;2024-02-23T05:24:27;5.50;80.70
71668;DHT22;59504;54.806;9.640;2024-02-23T05:26:47;5.50;80.90
71668;DHT22;59504;54.806;9.640;2024-02-23T05:29:08;5.50;80.80
71668;DHT22;59504;54.806;9.640;2024-02-23T05:31:45;5.60;81.00
71668;DHT22;59504;54.806;9.640;2024-02-23T05:34:06;5.50;81.00
71668;DHT22;59504;54.806;9.640;2024-02-23T05:36:07;5.70;81.30
71668;DHT22;59504;54.806;9.640;2024-02-23T05:38:08;5.60;81.50
71668;DHT22;59504;54.806;9.640;2024-02-23T05:40:09;5.60;81.40
71668;DHT22;59504;54.806;9.640;2024-02-23T05:42:15;5.60;81.40
71668;DHT22;59504;54.806;9.640;2024-02-23T05:44:35;5.60;81.30
71668;DHT22;59504;54.806;9.640;2024-02-23T05:46:36;5.60;81.00
71668;DHT22;59504;54.806;9.640;2024-02-23T05:48:57;5.70;81.10
71668;DHT22;59504;54.806;9.640;2024-02-23T05:51:18;5.70;81.20
71668;DHT22;59504;54.806;9.640;2024-02-23T05:53:19;5.70;81.20
71668;DHT22;59504;54.806;9.640;2024-02-23T05:55:20;5.70;81.00
71668;DHT22;59504;54.806;9.640;2024-02-23T05:57:21;5.70;81.00
71668;DHT22;59504;54.806;9.640;2024-02-23T05:59:22;5.70;81.00
71668;DHT22;59504;54.806;9.640;2024-02-23T06:01:23;5.70;80.70
71668;DHT22;59504;54.806;9.640;2024-02-23T06:03:23;5.70;80.50
71668;DHT22;59504;54.806;9.640;2024-02-23T06:05:24;5.70;80.40
71668;DHT22;59504;54.806;9.640;2024-02-23T06:07:40;5.70;80.10
71668;DHT22;59504;54.806;9.640;2024-02-23T06:10:01;5.60;80.00
71668;DHT22;59504;54.806;9.640;2024-02-23T06:12:22;5.60;80.20
71668;DHT22;59504;54.806;9.640;2024-02-23T06:14:42;5.60;80.40
71668;DHT22;59504;54.806;9.640;2024-02-23T06:17:03;5.60;80.30
71668;DHT22;59504;54.806;9.640;2024-02-23T06:19:24;5.60;80.30
71668;DHT22;59504;54.806;9.640;2024-02-23T06:21:48;5.60;80.10
71668;DHT22;59504;54.806;9.640;2024-02-23T06:24:09;5.60;80.10
71668;DHT22;59504;54.806;9.640;2024-02-23T06:26:30;5.50;80.10
71668;DHT22;59504;54.806;9.640;2024-02-23T06:28:31;5.50;79.70
71668;DHT22;59504;54.806;9.640;2024-02-23T06:30:31;5.50;79.60
71668;DHT22;59504;54.806;9.640;2024-02-23T06:32:32;5.50;79.80
71668;DHT22;59504;54.806;9.640;2024-02-23T06:34:53;5.50;79.60
71668;DHT22;59504;54.806;9.640;2024-02-23T06:37:14;5.50;79.70
71668;DHT22;59504;54.806;9.640;2024-02-23T06:39:35;5.40;79.80
71668;DHT22;59504;54.806;9.640;2024-02-23T06:41:36;5.40;79.60
71668;DHT22;59504;54.806;9.640;2024-02-23T06:43:59;5.40;79.70
71668;DHT22;59504;54.806;9.640;2024-02-23T06:46:19;5.40;79.70
71668;DHT22;59504;54.806;9.640;2024-02-23T06:48:41;5.40;79.70
71668;DHT22;59504;54.806;9.640;2024-02-23T06:51:02;5.40;80.00
71668;DHT22;59504;54.806;9.640;2024-02-23T06:53:22;5.40;80.10
71668;DHT22;59504;54.806;9.640;2024-02-23T06:55:43;5.40;80.00
71668;DHT22;59504;54.806;9.640;2024-02-23T06:58:03;5.30;79.70
71668;DHT22;59504;54.806;9.640;2024-02-23T07:00:25;5.40;79.70
71668;DHT22;59504;54.806;9.640;2024-02-23T07:02:45;5.40;79.80
71668;DHT22;59504;54.806;9.640;2024-02-23T07:05:06;5.40;80.00
71668;DHT22;59504;54.806;9.640;2024-02-23T07:07:26;5.40;80.10
71668;DHT22;59504;54.806;9.640;2024-02-23T07:09:47;5.40;80.10
71668;DHT22;59504;54.806;9.640;2024-02-23T07:12:07;5.40;80.20
71668;DHT22;59504;54.806;9.640;2024-02-23T07:14:10;5.40;80.40
71668;DHT22;59504;54.806;9.640;2024-02-23T07:16:33;5.40;80.30
71668;DHT22;59504;54.806;9.640;2024-02-23T07:18:53;5.40;80.40
71668;DHT22;59504;54.806;9.640;2024-02-23T07:21:18;5.50;80.50
71668;DHT22;59504;54.806;9.640;2024-02-23T07:23:39;5.40;80.40
71668;DHT22;59504;54.806;9.640;2024-02-23T07:25:59;5.40;80.20
71668;DHT22;59504;54.806;9.640;2024-02-23T07:28:20;5.40;80.40
71668;DHT22;59504;54.806;9.640;2024-02-23T07:30:42;5.50;80.70
71668;DHT22;59504;54.806;9.640;2024-02-23T07:33:03;5.50;80.70
71668;DHT22;59504;54.806;9.640;2024-02-23T07:35:23;5.50;80.70
71668;DHT22;59504;54.806;9.640;2024-02-23T07:37:44;5.40;80.40
71668;DHT22;59504;54.806;9.640;2024-02-23T07:40:05;5.40;80.30
71668;DHT22;59504;54.806;9.640;2024-02-23T07:42:25;5.50;80.20
71668;DHT22;59504;54.806;9.640;2024-02-23T07:44:47;5.50;80.30
71668;DHT22;59504;54.806;9.640;2024-02-23T07:47:07;5.50;80.20
71668;DHT22;59504;54.806;9.640;2024-02-23T07:49:28;5.50;80.10
71668;DHT22;59504;54.806;9.640;2024-02-23T07:51:48;5.50;80.00
71668;DHT22;59504;54.806;9.640;2024-02-23T07:54:09;5.50;80.10
71668;DHT22;59504;54.806;9.640;2024-02-23T07:56:30;5.50;80.00
71668;DHT22;59504;54.806;9.640;2024-02-23T07:58:50;5.50;80.10
71668;DHT22;59504;54.806;9.640;2024-02-23T08:01:11;5.50;80.30
71668;DHT22;59504;54.806;9.640;2024-02-23T08:03:32;5.50;80.40
71668;DHT22;59504;54.806;9.640;2024-02-23T08:05:32;5.50;80.70
71668;DHT22;59504;54.806;9.640;2024-02-23T08:07:36;5.50;80.70
71668;DHT22;59504;54.806;9.640;2024-02-23T08:09:37;5.50;80.90
71668;DHT22;59504;54.806;9.640;2024-02-23T08:11:37;5.50;81.20
71668;DHT22;59504;54.806;9.640;2024-02-23T08:13:38;5.50;81.30
71668;DHT22;59504;54.806;9.640;2024-02-23T08:15:39;5.60;81.50
71668;DHT22;59504;54.806;9.640;2024-02-23T08:17:59;5.50;81.40
71668;DHT22;59504;54.806;9.640;2024-02-23T08:20:20;5.50;80.60
71668;DHT22;59504;54.806;9.640;2024-02-23T08:22:41;5.50;79.30
71668;DHT22;59504;54.806;9.640;2024-02-23T08:25:02;5.50;78.80
71668;DHT22;59504;54.806;9.640;2024-02-23T08:27:22;5.40;78.70
71668;DHT22;59504;54.806;9.640;2024-02-23T08:29:43;5.30;78.50
71668;DHT22;59504;54.806;9.640;2024-02-23T08:31:46;5.30;78.30
71668;DHT22;59504;54.806;9.640;2024-02-23T08:34:07;5.20;78.10
71668;DHT22;59504;54.806;9.640;2024-02-23T08:36:27;5.10;77.90
71668;DHT22;59504;54.806;9.640;2024-02-23T08:38:48;5.00;77.80
71668;DHT22;59504;54.806;9.640;2024-02-23T08:41:08;5.00;78.20
71668;DHT22;59504;54.806;9.640;2024-02-23T08:43:29;4.90;78.60
71668;DHT22;59504;54.806;9.640;2024-02-23T08:45:49;4.90;79.50
71668;DHT22;59504;54.806;9.640;2024-02-23T08:48:10;4.80;79.80
71668;DHT22;59504;54.806;9.640;2024-02-23T08:50:35;4.80;80.10
71668;DHT22;59504;54.806;9.640;2024-02-23T08:52:55;4.80;80.30
71668;DHT22;59504;54.806;9.640;2024-02-23T08:55:16;4.80;80.60
71668;DHT22;59504;54.806;9.640;2024-02-23T08:57:37;4.80;81.10
71668;DHT22;59504;54.806;9.640;2024-02-23T08:59:57;4.80;82.10
71668;DHT22;59504;54.806;9.640;2024-02-23T09:02:18;5.00;82.60
71668;DHT22;59504;54.806;9.640;2024-02-23T09:04:39;4.90;83.00
71668;DHT22;59504;54.806;9.640;2024-02-23T09:07:00;4.90;83.20
71668;DHT22;59504;54.806;9.640;2024-02-23T09:09:20;5.00;83.40
71668;DHT22;59504;54.806;9.640;2024-02-23T09:11:22;5.00;83.60
71668;DHT22;59504;54.806;9.640;2024-02-23T09:13:22;5.00;83.80
71668;DHT22;59504;54.806;9.640;2024-02-23T09:15:23;5.10;83.90
71668;DHT22;59504;54.806;9.640;2024-02-23T09:17:23;5.10;84.40
71668;DHT22;59504;54.806;9.640;2024-02-23T09:19:27;5.10;84.40
71668;DHT22;59504;54.806;9.640;2024-02-23T09:21:38;5.20;84.70
71668;DHT22;59504;54.806;9.640;2024-02-23T09:23:44;5.30;85.10
71668;DHT22;59504;54.806;9.640;2024-02-23T09:26:08;5.30;84.60
71668;DHT22;59504;54.806;9.640;2024-02-23T09:28:14;5.40;84.60
71668;DHT22;59504;54.806;9.640;2024-02-23T09:30:34;5.40;84.30
71668;DHT22;59504;54.806;9.640;2024-02-23T09:32:55;5.50;84.20
71668;DHT22;59504;54.806;9.640;2024-02-23T09:35:15;5.50;84.00
71668;DHT22;59504;54.806;9.640;2024-02-23T09:37:36;5.50;83.90
71668;DHT22;59504;54.806;9.640;2024-02-23T09:39:56;5.60;83.90
71668;DHT22;59504;54.806;9.640;2024-02-23T09:42:17;5.60;83.90
71668;DHT22;59504;54.806;9.640;2024-02-23T09:44:39;5.60;83.80
71668;DHT22;59504;54.806;9.640;2024-02-23T09:47:02;5.70;83.90
71668;DHT22;59504;54.806;9.640;2024-02-23T09:49:28;5.70;83.90
71668;DHT22;59504;54.806;9.640;2024-02-23T09:51:49;5.80;84.00
71668;DHT22;59504;54.806;9.640;2024-02-23T09:54:09;5.90;83.90
71668;DHT22;59504;54.806;9.640;2024-02-23T09:56:30;5.90;83.50
71668;DHT22;59504;54.806;9.640;2024-02-23T09:58:51;5.90;83.20
71668;DHT22;59504;54.806;9.640;2024-02-23T10:01:12;6.00;83.00
71668;DHT22;59504;54.806;9.640;2024-02-23T10:03:38;6.20;83.00
71668;DHT22;59504;54.806;9.640;2024-02-23T10:05:59;6.10;82.80
71668;DHT22;59504;54.806;9.640;2024-02-23T10:08:21;6.10;82.50
71668;DHT22;59504;54.806;9.640;2024-02-23T10:10:42;6.10;81.90
71668;DHT22;59504;54.806;9.640;2024-02-23T10:13:06;6.10;81.80
71668;DHT22;59504;54.806;9.640;2024-02-23T10:15:28;6.20;81.80
71668;DHT22;59504;54.806;9.640;2024-02-23T10:17:49;6.20;81.60
71668;DHT22;59504;54.806;9.640;2024-02-23T10:20:10;6.20;81.30
71668;DHT22;59504;54.806;9.640;2024-02-23T10:22:18;6.30;81.50
71668;DHT22;59504;54.806;9.640;2024-02-23T10:24:22;6.40;81.40
71668;DHT22;59504;54.806;9.640;2024-02-23T10:26:23;6.30;81.20
71668;DHT22;59504;54.806;9.640;2024-02-23T10:28:39;6.40;81.00
71668;DHT22;59504;54.806;9.640;2024-02-23T10:30:43;6.50;80.80
71668;DHT22;59504;54.806;9.640;2024-02-23T10:33:03;6.50;80.40
71668;DHT22;59504;54.806;9.640;2024-02-23T10:35:25;6.50;79.90
71668;DHT22;59504;54.806;9.640;2024-02-23T10:37:47;6.60;79.70
71668;DHT22;59504;54.806;9.640;2024-02-23T10:40:11;6.60;79.20
71668;DHT22;59504;54.806;9.640;2024-02-23T10:42:33;6.60;79.10
71668;DHT22;59504;54.806;9.640;2024-02-23T10:44:54;6.70;79.20
71668;DHT22;59504;54.806;9.640;2024-02-23T10:47:16;6.70;79.20
71668;DHT22;59504;54.806;9.640;2024-02-23T10:49:37;6.80;79.50
71668;DHT22;59504;54.806;9.640;2024-02-23T10:51:58;6.80;79.30
71668;DHT22;59504;54.806;9.640;2024-02-23T10:54:19;6.90;79.30
71668;DHT22;59504;54.806;9.640;2024-02-23T10:56:41;6.90;78.40
71668;DHT22;59504;54.806;9.640;2024-02-23T10:59:02;7.00;78.20
71668;DHT22;59504;54.806;9.640;2024-02-23T11:01:23;7.00;77.10
71668;DHT22;59504;54.806;9.640;2024-02-23T11:03:45;7.00;76.10
71668;DHT22;59504;54.806;9.640;2024-02-23T11:06:10;7.00;75.80
71668;DHT22;59504;54.806;9.640;2024-02-23T11:08:34;7.10;76.30
71668;DHT22;59504;54.806;9.640;2024-02-23T11:10:56;7.10;76.90
71668;DHT22;59504;54.806;9.640;2024-02-23T11:13:17;7.10;76.00
71668;DHT22;59504;54.806;9.640;2024-02-23T11:15:27;7.10;75.90
71668;DHT22;59504;54.806;9.640;2024-02-23T11:17:49;7.10;74.40
71668;DHT22;59504;54.806;9.640;2024-02-23T11:20:14;7.10;73.70
71668;DHT22;59504;54.806;9.640;2024-02-23T11:22:35;7.20;74.00
71668;DHT22;59504;54.806;9.640;2024-02-23T11:25:05;7.20;74.10
71668;DHT22;59504;54.806;9.640;2024-02-23T11:27:29;7.20;74.60
71668;DHT22;59504;54.806;9.640;2024-02-23T11:29:58;7.20;74.70
71668;DHT22;59504;54.806;9.640;2024-02-23T11:32:19;7.20;74.70
71668;DHT22;59504;54.806;9.640;2024-02-23T11:34:39;7.30;74.60
71668;DHT22;59504;54.806;9.640;2024-02-23T11:37:06;7.30;75.00
71668;DHT22;59504;54.806;9.640;2024-02-23T11:39:27;7.50;75.30
71668;DHT22;59504;54.806;9.640;2024-02-23T11:41:49;7.40;75.70
71668;DHT22;59504;54.806;9.640;2024-02-23T11:43:59;7.40;74.00
71668;DHT22;59504;54.806;9.640;2024-02-23T11:45:59;7.40;72.80
71668;DHT22;59504;54.806;9.640;2024-02-23T11:48:00;7.40;72.80
71668;DHT22;59504;54.806;9.640;2024-02-23T11:50:00;7.50;73.60
71668;DHT22;59504;54.806;9.640;2024-02-23T11:52:01;7.40;72.70
71668;DHT22;59504;54.806;9.640;2024-02-23T11:54:01;7.50;73.20
71668;DHT22;59504;54.806;9.640;2024-02-23T11:56:03;7.50;74.00
71668;DHT22;59504;54.806;9.640;2024-02-23T11:58:04;7.50;74.20
71668;DHT22;59504;54.806;9.640;2024-02-23T12:00:06;7.60;74.60
71668;DHT22;59504;54.806;9.640;2024-02-23T12:02:07;7.60;74.00
71668;DHT22;59504;54.806;9.640;2024-02-23T12:04:07;7.60;74.40
71668;DHT22;59504;54.806;9.640;2024-02-23T12:06:09;7.60;74.40
71668;DHT22;59504;54.806;9.640;2024-02-23T12:08:10;7.60;74.50
71668;DHT22;59504;54.806;9.640;2024-02-23T12:10:10;7.60;74.70
71668;DHT22;59504;54.806;9.640;2024-02-23T12:12:11;7.60;74.00
71668;DHT22;59504;54.806;9.640;2024-02-23T12:14:13;7.60;73.90
71668;DHT22;59504;54.806;9.640;2024-02-23T12:16:14;7.70;73.90
71668;DHT22;59504;54.806;9.640;2024-02-23T12:18:14;7.60;74.40
71668;DHT22;59504;54.806;9.640;2024-02-23T12:20:15;7.60;74.40
71668;DHT22;59504;54.806;9.640;2024-02-23T12:22:16;7.60;73.60
71668;DHT22;59504;54.806;9.640;2024-02-23T12:24:17;7.60;73.60
71668;DHT22;59504;54.806;9.640;2024-02-23T12:26:17;7.60;73.80
71668;DHT22;59504;54.806;9.640;2024-02-23T12:28:18;7.50;73.30
71668;DHT22;59504;54.806;9.640;2024-02-23T12:30:19;7.60;73.00
71668;DHT22;59504;54.806;9.640;2024-02-23T12:32:20;7.60;73.50
71668;DHT22;59504;54.806;9.640;2024-02-23T12:34:20;7.50;73.20
71668;DHT22;59504;54.806;9.640;2024-02-23T12:36:21;7.50;73.20
71668;DHT22;59504;54.806;9.640;2024-02-23T12:38:22;7.50;72.90
71668;DHT22;59504;54.806;9.640;2024-02-23T12:40:23;7.50;73.10
71668;DHT22;59504;54.806;9.640;2024-02-23T12:42:24;7.50;73.40
71668;DHT22;59504;54.806;9.640;2024-02-23T12:44:24;7.50;73.20
71668;DHT22;59504;54.806;9.640;2024-02-23T12:46:25;7.50;73.30
71668;DHT22;59504;54.806;9.640;2024-02-23T12:48:26;7.50;72.90
71668;DHT22;59504;54.806;9.640;2024-02-23T12:50:29;7.60;73.30
71668;DHT22;59504;54.806;9.640;2024-02-23T12:52:30;7.60;72.90
71668;DHT22;59504;54.806;9.640;2024-02-23T12:54:30;7.60;73.60
71668;DHT22;59504;54.806;9.640;2024-02-23T12:56:31;7.60;73.90
71668;DHT22;59504;54.806;9.640;2024-02-23T12:58:31;7.70;73.60
71668;DHT22;59504;54.806;9.640;2024-02-23T13:00:35;7.60;73.00
71668;DHT22;59504;54.806;9.640;2024-02-23T13:02:36;7.70;73.80
71668;DHT22;59504;54.806;9.640;2024-02-23T13:04:56;7.70;73.90
71668;DHT22;59504;54.806;9.640;2024-02-23T13:06:57;7.70;73.80
71668;DHT22;59504;54.806;9.640;2024-02-23T13:09:18;7.70;74.10
71668;DHT22;59504;54.806;9.640;2024-02-23T13:11:39;7.70;73.70
71668;DHT22;59504;54.806;9.640;2024-02-23T13:14:00;7.80;74.70
71668;DHT22;59504;54.806;9.640;2024-02-23T13:16:17;7.80;74.60
71668;DHT22;59504;54.806;9.640;2024-02-23T13:18:38;7.80;74.60
71668;DHT22;59504;54.806;9.640;2024-02-23T13:20:58;7.80;74.90
71668;DHT22;59504;54.806;9.640;2024-02-23T13:23:19;7.90;75.00
71668;DHT22;59504;54.806;9.640;2024-02-23T13:25:39;7.90;74.40
71668;DHT22;59504;54.806;9.640;2024-02-23T13:28:00;8.00;74.60
71668;DHT22;59504;54.806;9.640;2024-02-23T13:30:10;7.90;74.60
71668;DHT22;59504;54.806;9.640;2024-02-23T13:32:32;7.90;74.60
71668;DHT22;59504;54.806;9.640;2024-02-23T13:34:52;8.00;74.50
71668;DHT22;59504;54.806;9.640;2024-02-23T13:37:13;8.00;74.50
71668;DHT22;59504;54.806;9.640;2024-02-23T13:39:33;8.00;74.10
71668;DHT22;59504;54.806;9.640;2024-02-23T13:41:55;8.00;74.50
71668;DHT22;59504;54.806;9.640;2024-02-23T13:44:15;8.00;74.60
71668;DHT22;59504;54.806;9.640;2024-02-23T13:46:37;8.10;74.40
71668;DHT22;59504;54.806;9.640;2024-02-23T13:49:05;8.10;73.90
71668;DHT22;59504;54.806;9.640;2024-02-23T13:51:26;8.10;74.40
71668;DHT22;59504;54.806;9.640;2024-02-23T13:53:47;8.10;74.20
71668;DHT22;59504;54.806;9.640;2024-02-23T13:56:07;8.20;74.30
71668;DHT22;59504;54.806;9.640;2024-02-23T13:58:28;8.20;74.30
71668;DHT22;59504;54.806;9.640;2024-02-23T14:00:49;8.20;73.70
71668;DHT22;59504;54.806;9.640;2024-02-23T14:03:10;8.10;73.70
71668;DHT22;59504;54.806;9.640;2024-02-23T14:05:35;8.30;73.70
71668;DHT22;59504;54.806;9.640;2024-02-23T14:07:56;8.30;73.00
71668;DHT22;59504;54.806;9.640;2024-02-23T14:10:16;8.20;73.10
71668;DHT22;59504;54.806;9.640;2024-02-23T14:12:37;8.20;72.60
71668;DHT22;59504;54.806;9.640;2024-02-23T14:14:58;8.20;72.20
71668;DHT22;59504;54.806;9.640;2024-02-23T14:17:18;8.20;72.30
71668;DHT22;59504;54.806;9.640;2024-02-23T14:19:42;8.20;72.60
71668;DHT22;59504;54.806;9.640;2024-02-23T14:22:02;8.20;72.40
71668;DHT22;59504;54.806;9.640;2024-02-23T14:24:23;8.20;71.90
71668;DHT22;59504;54.806;9.640;2024-02-23T14:26:43;8.20;72.20